sensor_id;sensor_type;location;lat;lon;timestamp;P1;durP1;ratioP1;P2;durP2;ratioP2
59336;SDS011;45115;52.002;4.686;2022-12-07T00:00:21;10.65;;;4.70;;
59336;SDS011;45115;52.002;4.686;2022-12-07T00:02:50;8.13;;;4.53;;
59336;SDS011;45115;52.002;4.686;2022-12-07T00:05:17;10.80;;;4.55;;
59336;SDS011;45115;52.002;4.686;2022-12-07T00:07:47;10.95;;;4.25;;
59336;SDS011;45115;52.002;4.686;2022-12-07T00:10:14;7.55;;;4.15;;
59336;SDS011;45115;52.002;4.686;2022-12-07T00:12:41;13.07;;;4.35;;
59336;SDS011;45115;52.002;4.686;2022-12-07T00:15:07;8.50;;;3.80;;
59336;SDS011;45115;52.002;4.686;2022-12-07T00:17:37;12.77;;;4.43;;
59336;SDS011;45115;52.002;4.686;2022-12-07T00:20:04;11.25;;;4.57;;
59336;SDS011;45115;52.002;4.686;2022-12-07T00:22:32;8.93;;;3.30;;
59336;SDS011;45115;52.002;4.686;2022-12-07T00:25:00;6.45;;;3.15;;
59336;SDS011;45115;52.002;4.686;2022-12-07T00:27:27;7.30;;;2.60;;
59336;SDS011;45115;52.002;4.686;2022-12-07T00:29:54;5.97;;;2.55;;
59336;SDS011;45115;52.002;4.686;2022-12-07T00:32:20;3.88;;;2.10;;
59336;SDS011;45115;52.002;4.686;2022-12-07T00:34:47;6.38;;;2.38;;
59336;SDS011;45115;52.002;4.686;2022-12-07T00:37:14;4.65;;;1.90;;
59336;SDS011;45115;52.002;4.686;2022-12-07T00:39:41;6.30;;;2.25;;
59336;SDS011;45115;52.002;4.686;2022-12-07T00:42:09;1.77;;;1.40;;
59336;SDS011;45115;52.002;4.686;2022-12-07T00:44:36;2.67;;;1.58;;
59336;SDS011;45115;52.002;4.686;2022-12-07T00:47:02;7.45;;;2.70;;
59336;SDS011;45115;52.002;4.686;2022-12-07T00:49:29;4.18;;;1.70;;
59336;SDS011;45115;52.002;4.686;2022-12-07T00:51:56;5.43;;;2.08;;
59336;SDS011;45115;52.002;4.686;2022-12-07T00:54:23;3.38;;;2.00;;
59336;SDS011;45115;52.002;4.686;2022-12-07T00:56:49;4.32;;;2.20;;
59336;SDS011;45115;52.002;4.686;2022-12-07T00:59:17;4.15;;;2.17;;
59336;SDS011;45115;52.002;4.686;2022-12-07T01:01:44;6.70;;;2.17;;
59336;SDS011;45115;52.002;4.686;2022-12-07T01:04:11;6.25;;;2.80;;
59336;SDS011;45115;52.002;4.686;2022-12-07T01:06:38;7.50;;;2.58;;
59336;SDS011;45115;52.002;4.686;2022-12-07T01:09:04;7.03;;;2.33;;
59336;SDS011;45115;52.002;4.686;2022-12-07T01:11:31;13.38;;;2.30;;
59336;SDS011;45115;52.002;4.686;2022-12-07T01:13:59;8.25;;;1.77;;
59336;SDS011;45115;52.002;4.686;2022-12-07T01:16:28;8.95;;;2.13;;
59336;SDS011;45115;52.002;4.686;2022-12-07T01:18:56;11.57;;;2.05;;
59336;SDS011;45115;52.002;4.686;2022-12-07T01:21:24;4.57;;;1.35;;
59336;SDS011;45115;52.002;4.686;2022-12-07T01:23:53;5.30;;;1.30;;
59336;SDS011;45115;52.002;4.686;2022-12-07T01:26:21;8.32;;;1.13;;
59336;SDS011;45115;52.002;4.686;2022-12-07T01:28:49;7.70;;;1.73;;
59336;SDS011;45115;52.002;4.686;2022-12-07T01:31:20;5.97;;;1.33;;
59336;SDS011;45115;52.002;4.686;2022-12-07T01:33:51;6.90;;;1.77;;
59336;SDS011;45115;52.002;4.686;2022-12-07T01:36:19;10.43;;;1.70;;
59336;SDS011;45115;52.002;4.686;2022-12-07T01:38:48;7.25;;;1.50;;
59336;SDS011;45115;52.002;4.686;2022-12-07T01:41:16;3.88;;;1.40;;
59336;SDS011;45115;52.002;4.686;2022-12-07T01:46:34;7.05;;;1.08;;
59336;SDS011;45115;52.002;4.686;2022-12-07T01:49:02;6.30;;;1.17;;
59336;SDS011;45115;52.002;4.686;2022-12-07T01:51:32;5.25;;;1.15;;
59336;SDS011;45115;52.002;4.686;2022-12-07T01:53:59;10.10;;;1.42;;
59336;SDS011;45115;52.002;4.686;2022-12-07T01:56:28;2.33;;;1.00;;
59336;SDS011;45115;52.002;4.686;2022-12-07T01:58:55;1.92;;;1.15;;
59336;SDS011;45115;52.002;4.686;2022-12-07T02:01:24;3.60;;;0.95;;
59336;SDS011;45115;52.002;4.686;2022-12-07T02:03:51;1.67;;;0.75;;
59336;SDS011;45115;52.002;4.686;2022-12-07T02:06:20;3.40;;;1.27;;
59336;SDS011;45115;52.002;4.686;2022-12-07T02:08:50;5.70;;;1.17;;
59336;SDS011;45115;52.002;4.686;2022-12-07T02:11:18;2.38;;;1.25;;
59336;SDS011;45115;52.002;4.686;2022-12-07T02:13:46;6.45;;;1.27;;
59336;SDS011;45115;52.002;4.686;2022-12-07T02:16:20;2.38;;;1.00;;
59336;SDS011;45115;52.002;4.686;2022-12-07T02:18:55;3.33;;;0.88;;
59336;SDS011;45115;52.002;4.686;2022-12-07T02:21:37;6.53;;;1.80;;
59336;SDS011;45115;52.002;4.686;2022-12-07T02:24:14;4.40;;;1.48;;
59336;SDS011;45115;52.002;4.686;2022-12-07T02:27:08;3.83;;;1.33;;
59336;SDS011;45115;52.002;4.686;2022-12-07T02:29:52;1.50;;;0.98;;
59336;SDS011;45115;52.002;4.686;2022-12-07T02:32:24;5.15;;;1.60;;
59336;SDS011;45115;52.002;4.686;2022-12-07T02:34:55;1.52;;;0.73;;
59336;SDS011;45115;52.002;4.686;2022-12-07T02:37:33;2.20;;;1.40;;
59336;SDS011;45115;52.002;4.686;2022-12-07T02:40:06;2.85;;;1.02;;
59336;SDS011;45115;52.002;4.686;2022-12-07T02:42:38;1.58;;;0.70;;
59336;SDS011;45115;52.002;4.686;2022-12-07T02:45:12;2.08;;;0.95;;
59336;SDS011;45115;52.002;4.686;2022-12-07T02:47:44;6.05;;;1.55;;
59336;SDS011;45115;52.002;4.686;2022-12-07T02:50:13;2.88;;;1.00;;
59336;SDS011;45115;52.002;4.686;2022-12-07T02:52:40;6.25;;;1.38;;
59336;SDS011;45115;52.002;4.686;2022-12-07T02:55:07;2.53;;;1.00;;
59336;SDS011;45115;52.002;4.686;2022-12-07T02:57:48;3.50;;;0.88;;
59336;SDS011;45115;52.002;4.686;2022-12-07T03:00:22;4.40;;;1.30;;
59336;SDS011;45115;52.002;4.686;2022-12-07T03:02:51;3.15;;;0.73;;
59336;SDS011;45115;52.002;4.686;2022-12-07T03:05:32;3.80;;;1.27;;
59336;SDS011;45115;52.002;4.686;2022-12-07T03:08:13;5.65;;;1.00;;
59336;SDS011;45115;52.002;4.686;2022-12-07T03:10:48;4.53;;;1.42;;
59336;SDS011;45115;52.002;4.686;2022-12-07T03:13:23;1.35;;;1.00;;
59336;SDS011;45115;52.002;4.686;2022-12-07T03:15:57;1.42;;;0.57;;
59336;SDS011;45115;52.002;4.686;2022-12-07T03:18:29;2.45;;;0.82;;
59336;SDS011;45115;52.002;4.686;2022-12-07T03:21:08;3.72;;;1.00;;
59336;SDS011;45115;52.002;4.686;2022-12-07T03:23:38;1.77;;;0.85;;
59336;SDS011;45115;52.002;4.686;2022-12-07T03:26:08;10.98;;;1.17;;
59336;SDS011;45115;52.002;4.686;2022-12-07T03:28:40;2.50;;;1.05;;
59336;SDS011;45115;52.002;4.686;2022-12-07T03:31:14;5.15;;;1.20;;
59336;SDS011;45115;52.002;4.686;2022-12-07T03:33:46;2.85;;;0.90;;
59336;SDS011;45115;52.002;4.686;2022-12-07T03:36:18;6.78;;;1.63;;
59336;SDS011;45115;52.002;4.686;2022-12-07T03:38:49;5.10;;;1.70;;
59336;SDS011;45115;52.002;4.686;2022-12-07T03:41:21;7.38;;;1.42;;
59336;SDS011;45115;52.002;4.686;2022-12-07T03:43:49;4.13;;;1.52;;
59336;SDS011;45115;52.002;4.686;2022-12-07T03:46:19;8.55;;;1.33;;
59336;SDS011;45115;52.002;4.686;2022-12-07T03:48:54;6.07;;;1.35;;
59336;SDS011;45115;52.002;4.686;2022-12-07T03:51:28;3.13;;;1.05;;
59336;SDS011;45115;52.002;4.686;2022-12-07T03:54:05;6.88;;;1.92;;
59336;SDS011;45115;52.002;4.686;2022-12-07T03:56:37;4.47;;;1.70;;
59336;SDS011;45115;52.002;4.686;2022-12-07T03:59:06;5.00;;;1.17;;
59336;SDS011;45115;52.002;4.686;2022-12-07T04:01:35;4.53;;;1.08;;
59336;SDS011;45115;52.002;4.686;2022-12-07T04:04:02;2.78;;;1.08;;
59336;SDS011;45115;52.002;4.686;2022-12-07T04:06:29;3.55;;;1.23;;
59336;SDS011;45115;52.002;4.686;2022-12-07T04:08:55;9.73;;;1.65;;
59336;SDS011;45115;52.002;4.686;2022-12-07T04:11:22;4.63;;;1.50;;
59336;SDS011;45115;52.002;4.686;2022-12-07T04:13:49;5.55;;;1.40;;
59336;SDS011;45115;52.002;4.686;2022-12-07T04:16:34;4.03;;;1.40;;
59336;SDS011;45115;52.002;4.686;2022-12-07T04:19:01;5.55;;;1.75;;
59336;SDS011;45115;52.002;4.686;2022-12-07T04:21:28;4.13;;;0.95;;
59336;SDS011;45115;52.002;4.686;2022-12-07T04:23:54;2.38;;;0.90;;
59336;SDS011;45115;52.002;4.686;2022-12-07T04:26:21;4.85;;;1.10;;
59336;SDS011;45115;52.002;4.686;2022-12-07T04:28:48;4.07;;;1.23;;
59336;SDS011;45115;52.002;4.686;2022-12-07T04:31:15;2.35;;;1.17;;
59336;SDS011;45115;52.002;4.686;2022-12-07T04:33:43;3.90;;;2.25;;
59336;SDS011;45115;52.002;4.686;2022-12-07T04:36:09;3.05;;;1.42;;
59336;SDS011;45115;52.002;4.686;2022-12-07T04:38:36;6.60;;;1.40;;
59336;SDS011;45115;52.002;4.686;2022-12-07T04:41:04;7.65;;;1.23;;
59336;SDS011;45115;52.002;4.686;2022-12-07T04:43:32;3.83;;;1.60;;
59336;SDS011;45115;52.002;4.686;2022-12-07T04:45:58;2.80;;;1.65;;
59336;SDS011;45115;52.002;4.686;2022-12-07T04:48:25;8.00;;;2.63;;
59336;SDS011;45115;52.002;4.686;2022-12-07T04:50:54;9.20;;;2.55;;
59336;SDS011;45115;52.002;4.686;2022-12-07T04:53:21;8.95;;;1.63;;
59336;SDS011;45115;52.002;4.686;2022-12-07T04:55:47;10.73;;;2.10;;
59336;SDS011;45115;52.002;4.686;2022-12-07T04:58:14;4.25;;;1.35;;
59336;SDS011;45115;52.002;4.686;2022-12-07T05:00:41;8.02;;;2.33;;
59336;SDS011;45115;52.002;4.686;2022-12-07T05:03:08;2.30;;;1.00;;
59336;SDS011;45115;52.002;4.686;2022-12-07T05:05:35;5.72;;;1.40;;
59336;SDS011;45115;52.002;4.686;2022-12-07T05:08:03;2.58;;;1.05;;
59336;SDS011;45115;52.002;4.686;2022-12-07T05:10:30;1.83;;;1.10;;
59336;SDS011;45115;52.002;4.686;2022-12-07T05:12:56;6.47;;;1.27;;
59336;SDS011;45115;52.002;4.686;2022-12-07T05:15:23;6.90;;;1.48;;
59336;SDS011;45115;52.002;4.686;2022-12-07T05:17:50;6.78;;;1.83;;
59336;SDS011;45115;52.002;4.686;2022-12-07T05:20:17;6.78;;;1.23;;
59336;SDS011;45115;52.002;4.686;2022-12-07T05:22:44;3.40;;;1.17;;
59336;SDS011;45115;52.002;4.686;2022-12-07T05:25:12;4.07;;;1.40;;
59336;SDS011;45115;52.002;4.686;2022-12-07T05:27:38;3.85;;;1.33;;
59336;SDS011;45115;52.002;4.686;2022-12-07T05:30:05;6.82;;;1.50;;
59336;SDS011;45115;52.002;4.686;2022-12-07T05:32:33;5.30;;;1.10;;
59336;SDS011;45115;52.002;4.686;2022-12-07T05:35:00;1.98;;;1.00;;
59336;SDS011;45115;52.002;4.686;2022-12-07T05:37:26;3.85;;;0.90;;
59336;SDS011;45115;52.002;4.686;2022-12-07T05:39:53;5.15;;;1.42;;
59336;SDS011;45115;52.002;4.686;2022-12-07T05:42:21;4.10;;;1.40;;
59336;SDS011;45115;52.002;4.686;2022-12-07T05:44:48;3.92;;;1.30;;
59336;SDS011;45115;52.002;4.686;2022-12-07T05:47:15;2.90;;;1.40;;
59336;SDS011;45115;52.002;4.686;2022-12-07T05:49:42;5.60;;;1.50;;
59336;SDS011;45115;52.002;4.686;2022-12-07T05:52:09;2.50;;;1.20;;
59336;SDS011;45115;52.002;4.686;2022-12-07T05:54:35;1.73;;;1.50;;
59336;SDS011;45115;52.002;4.686;2022-12-07T05:57:02;3.03;;;1.02;;
59336;SDS011;45115;52.002;4.686;2022-12-07T05:59:30;3.65;;;1.50;;
59336;SDS011;45115;52.002;4.686;2022-12-07T06:01:57;5.07;;;1.83;;
59336;SDS011;45115;52.002;4.686;2022-12-07T06:04:26;5.85;;;1.75;;
59336;SDS011;45115;52.002;4.686;2022-12-07T06:06:54;2.28;;;1.17;;
59336;SDS011;45115;52.002;4.686;2022-12-07T06:09:21;2.80;;;1.10;;
59336;SDS011;45115;52.002;4.686;2022-12-07T06:11:48;3.83;;;1.42;;
59336;SDS011;45115;52.002;4.686;2022-12-07T06:14:34;3.53;;;1.52;;
59336;SDS011;45115;52.002;4.686;2022-12-07T06:17:01;4.43;;;1.60;;
59336;SDS011;45115;52.002;4.686;2022-12-07T06:19:28;1.05;;;0.85;;
59336;SDS011;45115;52.002;4.686;2022-12-07T06:21:56;4.25;;;1.48;;
59336;SDS011;45115;52.002;4.686;2022-12-07T06:24:23;8.18;;;1.95;;
59336;SDS011;45115;52.002;4.686;2022-12-07T06:26:50;3.30;;;1.45;;
59336;SDS011;45115;52.002;4.686;2022-12-07T06:29:17;4.75;;;2.45;;
59336;SDS011;45115;52.002;4.686;2022-12-07T06:31:45;6.88;;;2.17;;
59336;SDS011;45115;52.002;4.686;2022-12-07T06:34:13;5.80;;;2.20;;
59336;SDS011;45115;52.002;4.686;2022-12-07T06:36:41;6.55;;;2.72;;
59336;SDS011;45115;52.002;4.686;2022-12-07T06:39:08;4.60;;;2.40;;
59336;SDS011;45115;52.002;4.686;2022-12-07T06:41:35;5.90;;;2.50;;
59336;SDS011;45115;52.002;4.686;2022-12-07T06:44:03;5.22;;;2.20;;
59336;SDS011;45115;52.002;4.686;2022-12-07T06:46:32;5.10;;;2.28;;
59336;SDS011;45115;52.002;4.686;2022-12-07T06:49:01;5.15;;;2.10;;
59336;SDS011;45115;52.002;4.686;2022-12-07T06:51:28;9.07;;;3.10;;
59336;SDS011;45115;52.002;4.686;2022-12-07T06:53:55;6.07;;;2.72;;
59336;SDS011;45115;52.002;4.686;2022-12-07T06:56:22;8.13;;;1.95;;
59336;SDS011;45115;52.002;4.686;2022-12-07T06:58:48;5.43;;;2.22;;
59336;SDS011;45115;52.002;4.686;2022-12-07T07:01:16;11.48;;;3.05;;
59336;SDS011;45115;52.002;4.686;2022-12-07T07:03:44;8.73;;;2.47;;
59336;SDS011;45115;52.002;4.686;2022-12-07T07:06:13;9.60;;;2.45;;
59336;SDS011;45115;52.002;4.686;2022-12-07T07:08:40;6.93;;;2.08;;
59336;SDS011;45115;52.002;4.686;2022-12-07T07:11:08;4.40;;;2.22;;
59336;SDS011;45115;52.002;4.686;2022-12-07T07:13:35;4.90;;;1.75;;
59336;SDS011;45115;52.002;4.686;2022-12-07T07:16:02;4.45;;;2.05;;
59336;SDS011;45115;52.002;4.686;2022-12-07T07:18:29;1.38;;;1.08;;
59336;SDS011;45115;52.002;4.686;2022-12-07T07:20:56;5.40;;;1.75;;
59336;SDS011;45115;52.002;4.686;2022-12-07T07:23:24;2.38;;;1.63;;
59336;SDS011;45115;52.002;4.686;2022-12-07T07:25:51;2.25;;;1.70;;
59336;SDS011;45115;52.002;4.686;2022-12-07T07:28:18;3.35;;;2.10;;
59336;SDS011;45115;52.002;4.686;2022-12-07T07:30:44;2.17;;;1.75;;
59336;SDS011;45115;52.002;4.686;2022-12-07T07:33:11;12.25;;;4.85;;
59336;SDS011;45115;52.002;4.686;2022-12-07T07:35:39;10.10;;;4.10;;
59336;SDS011;45115;52.002;4.686;2022-12-07T07:38:05;11.38;;;4.30;;
59336;SDS011;45115;52.002;4.686;2022-12-07T07:40:34;9.98;;;4.20;;
59336;SDS011;45115;52.002;4.686;2022-12-07T07:43:02;7.57;;;3.15;;
59336;SDS011;45115;52.002;4.686;2022-12-07T07:45:29;5.65;;;2.53;;
59336;SDS011;45115;52.002;4.686;2022-12-07T07:47:55;6.32;;;2.50;;
59336;SDS011;45115;52.002;4.686;2022-12-07T07:50:22;7.05;;;2.65;;
59336;SDS011;45115;52.002;4.686;2022-12-07T07:52:49;4.68;;;2.13;;
59336;SDS011;45115;52.002;4.686;2022-12-07T07:55:16;5.30;;;2.00;;
59336;SDS011;45115;52.002;4.686;2022-12-07T07:57:44;28.77;;;12.73;;
59336;SDS011;45115;52.002;4.686;2022-12-07T08:00:12;7.88;;;2.88;;
59336;SDS011;45115;52.002;4.686;2022-12-07T08:02:40;4.35;;;2.00;;
59336;SDS011;45115;52.002;4.686;2022-12-07T08:05:08;5.20;;;2.10;;
59336;SDS011;45115;52.002;4.686;2022-12-07T08:07:36;5.07;;;2.00;;
59336;SDS011;45115;52.002;4.686;2022-12-07T08:10:03;5.32;;;2.15;;
59336;SDS011;45115;52.002;4.686;2022-12-07T08:12:30;6.10;;;2.20;;
59336;SDS011;45115;52.002;4.686;2022-12-07T08:14:58;3.78;;;2.38;;
59336;SDS011;45115;52.002;4.686;2022-12-07T08:17:25;6.07;;;2.63;;
59336;SDS011;45115;52.002;4.686;2022-12-07T08:19:52;7.78;;;3.63;;
59336;SDS011;45115;52.002;4.686;2022-12-07T08:22:18;9.23;;;2.88;;
59336;SDS011;45115;52.002;4.686;2022-12-07T08:24:45;6.82;;;3.03;;
59336;SDS011;45115;52.002;4.686;2022-12-07T08:27:12;7.55;;;2.80;;
59336;SDS011;45115;52.002;4.686;2022-12-07T08:29:38;9.20;;;2.92;;
59336;SDS011;45115;52.002;4.686;2022-12-07T08:32:06;8.90;;;3.15;;
59336;SDS011;45115;52.002;4.686;2022-12-07T08:34:33;7.53;;;3.40;;
59336;SDS011;45115;52.002;4.686;2022-12-07T08:37:00;9.73;;;3.80;;
59336;SDS011;45115;52.002;4.686;2022-12-07T08:39:27;6.43;;;3.38;;
59336;SDS011;45115;52.002;4.686;2022-12-07T08:41:54;6.15;;;2.67;;
59336;SDS011;45115;52.002;4.686;2022-12-07T08:44:20;6.40;;;2.40;;
59336;SDS011;45115;52.002;4.686;2022-12-07T08:46:48;4.57;;;2.08;;
59336;SDS011;45115;52.002;4.686;2022-12-07T08:49:20;6.37;;;2.30;;
59336;SDS011;45115;52.002;4.686;2022-12-07T08:51:50;6.13;;;2.25;;
59336;SDS011;45115;52.002;4.686;2022-12-07T08:54:17;3.28;;;2.30;;
59336;SDS011;45115;52.002;4.686;2022-12-07T08:56:46;3.95;;;2.90;;
59336;SDS011;45115;52.002;4.686;2022-12-07T08:59:14;9.15;;;2.50;;
59336;SDS011;45115;52.002;4.686;2022-12-07T09:01:43;5.15;;;2.13;;
59336;SDS011;45115;52.002;4.686;2022-12-07T09:04:10;5.30;;;2.35;;
59336;SDS011;45115;52.002;4.686;2022-12-07T09:06:38;8.43;;;2.90;;
59336;SDS011;45115;52.002;4.686;2022-12-07T09:09:05;7.18;;;2.55;;
59336;SDS011;45115;52.002;4.686;2022-12-07T09:11:33;4.28;;;2.20;;
59336;SDS011;45115;52.002;4.686;2022-12-07T09:13:59;5.35;;;2.70;;
59336;SDS011;45115;52.002;4.686;2022-12-07T09:16:26;8.07;;;2.35;;
59336;SDS011;45115;52.002;4.686;2022-12-07T09:18:53;8.45;;;2.55;;
59336;SDS011;45115;52.002;4.686;2022-12-07T09:21:20;5.78;;;2.78;;
59336;SDS011;45115;52.002;4.686;2022-12-07T09:23:48;7.07;;;2.40;;
59336;SDS011;45115;52.002;4.686;2022-12-07T09:26:15;6.03;;;2.80;;
59336;SDS011;45115;52.002;4.686;2022-12-07T09:28:42;8.73;;;3.08;;
59336;SDS011;45115;52.002;4.686;2022-12-07T09:31:08;5.07;;;2.60;;
59336;SDS011;45115;52.002;4.686;2022-12-07T09:33:35;5.35;;;2.65;;
59336;SDS011;45115;52.002;4.686;2022-12-07T09:36:02;5.82;;;2.42;;
59336;SDS011;45115;52.002;4.686;2022-12-07T09:38:30;6.63;;;2.60;;
59336;SDS011;45115;52.002;4.686;2022-12-07T09:40:59;8.38;;;2.83;;
59336;SDS011;45115;52.002;4.686;2022-12-07T09:43:31;6.50;;;2.15;;
59336;SDS011;45115;52.002;4.686;2022-12-07T09:45:58;4.72;;;2.40;;
59336;SDS011;45115;52.002;4.686;2022-12-07T09:48:25;6.38;;;2.15;;
59336;SDS011;45115;52.002;4.686;2022-12-07T09:50:57;7.57;;;2.30;;
59336;SDS011;45115;52.002;4.686;2022-12-07T09:53:27;4.72;;;2.25;;
59336;SDS011;45115;52.002;4.686;2022-12-07T09:55:56;4.20;;;2.10;;
59336;SDS011;45115;52.002;4.686;2022-12-07T09:58:25;4.50;;;2.38;;
59336;SDS011;45115;52.002;4.686;2022-12-07T10:00:55;8.40;;;3.75;;
59336;SDS011;45115;52.002;4.686;2022-12-07T10:03:25;3.17;;;2.50;;
59336;SDS011;45115;52.002;4.686;2022-12-07T10:05:53;7.75;;;3.15;;
59336;SDS011;45115;52.002;4.686;2022-12-07T10:08:22;7.82;;;3.13;;
59336;SDS011;45115;52.002;4.686;2022-12-07T10:10:50;8.38;;;3.53;;
59336;SDS011;45115;52.002;4.686;2022-12-07T10:13:19;9.15;;;3.30;;
59336;SDS011;45115;52.002;4.686;2022-12-07T10:15:50;7.05;;;3.20;;
59336;SDS011;45115;52.002;4.686;2022-12-07T10:18:26;5.03;;;2.90;;
59336;SDS011;45115;52.002;4.686;2022-12-07T10:21:05;5.50;;;2.70;;
59336;SDS011;45115;52.002;4.686;2022-12-07T10:23:38;8.60;;;2.60;;
59336;SDS011;45115;52.002;4.686;2022-12-07T10:28:53;3.95;;;2.17;;
59336;SDS011;45115;52.002;4.686;2022-12-07T10:31:23;8.85;;;3.30;;
59336;SDS011;45115;52.002;4.686;2022-12-07T10:33:50;6.03;;;3.05;;
59336;SDS011;45115;52.002;4.686;2022-12-07T10:36:19;8.20;;;2.33;;
59336;SDS011;45115;52.002;4.686;2022-12-07T10:38:50;6.53;;;2.53;;
59336;SDS011;45115;52.002;4.686;2022-12-07T10:41:19;5.55;;;2.53;;
59336;SDS011;45115;52.002;4.686;2022-12-07T10:43:50;5.43;;;2.33;;
59336;SDS011;45115;52.002;4.686;2022-12-07T10:46:32;5.57;;;2.88;;
59336;SDS011;45115;52.002;4.686;2022-12-07T10:49:18;3.05;;;1.80;;
59336;SDS011;45115;52.002;4.686;2022-12-07T10:52:02;7.95;;;2.78;;
59336;SDS011;45115;52.002;4.686;2022-12-07T10:54:39;5.38;;;2.20;;
59336;SDS011;45115;52.002;4.686;2022-12-07T11:00:07;5.57;;;2.08;;
59336;SDS011;45115;52.002;4.686;2022-12-07T11:02:45;11.07;;;2.63;;
59336;SDS011;45115;52.002;4.686;2022-12-07T11:05:24;7.88;;;2.28;;
59336;SDS011;45115;52.002;4.686;2022-12-07T11:08:00;7.30;;;2.22;;
59336;SDS011;45115;52.002;4.686;2022-12-07T11:10:38;4.55;;;2.00;;
59336;SDS011;45115;52.002;4.686;2022-12-07T11:13:22;6.18;;;1.63;;
59336;SDS011;45115;52.002;4.686;2022-12-07T11:16:02;6.43;;;2.05;;
59336;SDS011;45115;52.002;4.686;2022-12-07T11:18:39;8.80;;;2.17;;
59336;SDS011;45115;52.002;4.686;2022-12-07T11:21:15;7.13;;;2.00;;
59336;SDS011;45115;52.002;4.686;2022-12-07T11:23:49;3.83;;;2.13;;
59336;SDS011;45115;52.002;4.686;2022-12-07T11:26:30;3.70;;;2.00;;
59336;SDS011;45115;52.002;4.686;2022-12-07T11:29:09;6.75;;;2.28;;
59336;SDS011;45115;52.002;4.686;2022-12-07T11:31:51;4.75;;;2.15;;
59336;SDS011;45115;52.002;4.686;2022-12-07T11:34:29;4.80;;;2.05;;
59336;SDS011;45115;52.002;4.686;2022-12-07T11:37:06;6.15;;;2.10;;
59336;SDS011;45115;52.002;4.686;2022-12-07T11:39:39;4.18;;;1.90;;
59336;SDS011;45115;52.002;4.686;2022-12-07T11:42:13;9.25;;;2.75;;
59336;SDS011;45115;52.002;4.686;2022-12-07T11:44:46;4.88;;;1.63;;
59336;SDS011;45115;52.002;4.686;2022-12-07T11:47:20;4.20;;;1.67;;
59336;SDS011;45115;52.002;4.686;2022-12-07T11:49:54;2.63;;;1.17;;
59336;SDS011;45115;52.002;4.686;2022-12-07T11:52:27;3.45;;;0.95;;
59336;SDS011;45115;52.002;4.686;2022-12-07T11:55:02;2.35;;;1.27;;
59336;SDS011;45115;52.002;4.686;2022-12-07T11:57:41;6.05;;;1.48;;
59336;SDS011;45115;52.002;4.686;2022-12-07T12:00:14;4.72;;;1.27;;
59336;SDS011;45115;52.002;4.686;2022-12-07T12:02:43;3.00;;;1.00;;
59336;SDS011;45115;52.002;4.686;2022-12-07T12:05:17;4.03;;;0.95;;
59336;SDS011;45115;52.002;4.686;2022-12-07T12:07:46;1.70;;;0.80;;
59336;SDS011;45115;52.002;4.686;2022-12-07T12:10:18;5.40;;;0.80;;
59336;SDS011;45115;52.002;4.686;2022-12-07T12:15:59;2.60;;;0.63;;
59336;SDS011;45115;52.002;4.686;2022-12-07T12:18:42;2.08;;;1.02;;
59336;SDS011;45115;52.002;4.686;2022-12-07T12:21:39;3.65;;;1.00;;
59336;SDS011;45115;52.002;4.686;2022-12-07T12:24:09;6.45;;;1.23;;
59336;SDS011;45115;52.002;4.686;2022-12-07T12:26:40;7.22;;;1.55;;
59336;SDS011;45115;52.002;4.686;2022-12-07T12:29:20;3.50;;;1.63;;
59336;SDS011;45115;52.002;4.686;2022-12-07T12:32:04;2.72;;;0.93;;
59336;SDS011;45115;52.002;4.686;2022-12-07T12:34:39;4.07;;;1.13;;
59336;SDS011;45115;52.002;4.686;2022-12-07T12:46:36;1.10;;;0.95;;
59336;SDS011;45115;52.002;4.686;2022-12-07T12:58:38;2.65;;;1.35;;
59336;SDS011;45115;52.002;4.686;2022-12-07T13:04:14;2.38;;;1.40;;
59336;SDS011;45115;52.002;4.686;2022-12-07T13:06:47;2.20;;;1.17;;
59336;SDS011;45115;52.002;4.686;2022-12-07T13:09:18;2.33;;;1.23;;
59336;SDS011;45115;52.002;4.686;2022-12-07T13:11:50;4.72;;;1.30;;
59336;SDS011;45115;52.002;4.686;2022-12-07T13:14:41;2.33;;;1.25;;
59336;SDS011;45115;52.002;4.686;2022-12-07T13:23:20;3.38;;;1.00;;
59336;SDS011;45115;52.002;4.686;2022-12-07T13:28:51;3.80;;;1.15;;
59336;SDS011;45115;52.002;4.686;2022-12-07T13:31:22;2.97;;;1.10;;
59336;SDS011;45115;52.002;4.686;2022-12-07T13:33:56;3.92;;;1.40;;
59336;SDS011;45115;52.002;4.686;2022-12-07T13:36:24;4.75;;;1.00;;
59336;SDS011;45115;52.002;4.686;2022-12-07T13:38:54;1.60;;;0.80;;
59336;SDS011;45115;52.002;4.686;2022-12-07T13:41:23;1.75;;;0.80;;
59336;SDS011;45115;52.002;4.686;2022-12-07T13:43:53;2.47;;;0.95;;
59336;SDS011;45115;52.002;4.686;2022-12-07T13:46:29;1.60;;;0.68;;
59336;SDS011;45115;52.002;4.686;2022-12-07T13:49:02;2.10;;;0.70;;
59336;SDS011;45115;52.002;4.686;2022-12-07T13:51:29;2.03;;;1.33;;
59336;SDS011;45115;52.002;4.686;2022-12-07T13:54:07;3.80;;;0.80;;
59336;SDS011;45115;52.002;4.686;2022-12-07T13:56:36;4.50;;;0.90;;
59336;SDS011;45115;52.002;4.686;2022-12-07T13:59:07;3.00;;;0.80;;
59336;SDS011;45115;52.002;4.686;2022-12-07T14:01:39;4.80;;;1.40;;
59336;SDS011;45115;52.002;4.686;2022-12-07T14:04:16;5.22;;;1.08;;
59336;SDS011;45115;52.002;4.686;2022-12-07T14:06:48;3.83;;;0.70;;
59336;SDS011;45115;52.002;4.686;2022-12-07T14:09:19;4.95;;;1.05;;
59336;SDS011;45115;52.002;4.686;2022-12-07T14:11:48;3.13;;;0.90;;
59336;SDS011;45115;52.002;4.686;2022-12-07T14:14:19;4.55;;;1.10;;
59336;SDS011;45115;52.002;4.686;2022-12-07T14:16:55;3.67;;;1.38;;
59336;SDS011;45115;52.002;4.686;2022-12-07T14:19:43;3.97;;;1.30;;
59336;SDS011;45115;52.002;4.686;2022-12-07T14:22:19;2.03;;;0.95;;
59336;SDS011;45115;52.002;4.686;2022-12-07T14:24:49;3.13;;;1.02;;
59336;SDS011;45115;52.002;4.686;2022-12-07T14:27:16;2.45;;;1.10;;
59336;SDS011;45115;52.002;4.686;2022-12-07T14:29:46;1.70;;;1.40;;
59336;SDS011;45115;52.002;4.686;2022-12-07T14:32:18;5.13;;;1.17;;
59336;SDS011;45115;52.002;4.686;2022-12-07T14:34:57;5.25;;;0.75;;
59336;SDS011;45115;52.002;4.686;2022-12-07T14:37:25;5.65;;;1.27;;
59336;SDS011;45115;52.002;4.686;2022-12-07T14:39:53;1.90;;;0.93;;
59336;SDS011;45115;52.002;4.686;2022-12-07T14:42:20;4.88;;;1.00;;
59336;SDS011;45115;52.002;4.686;2022-12-07T14:44:51;5.55;;;1.30;;
59336;SDS011;45115;52.002;4.686;2022-12-07T14:47:18;4.07;;;1.15;;
59336;SDS011;45115;52.002;4.686;2022-12-07T14:49:45;4.53;;;1.60;;
59336;SDS011;45115;52.002;4.686;2022-12-07T14:52:13;3.55;;;0.90;;
59336;SDS011;45115;52.002;4.686;2022-12-07T14:54:42;2.63;;;0.82;;
59336;SDS011;45115;52.002;4.686;2022-12-07T14:57:09;2.20;;;1.10;;
59336;SDS011;45115;52.002;4.686;2022-12-07T14:59:37;4.15;;;1.65;;
59336;SDS011;45115;52.002;4.686;2022-12-07T15:02:05;4.75;;;1.50;;
59336;SDS011;45115;52.002;4.686;2022-12-07T15:04:33;2.67;;;1.15;;
59336;SDS011;45115;52.002;4.686;2022-12-07T15:07:00;2.60;;;1.35;;
59336;SDS011;45115;52.002;4.686;2022-12-07T15:09:28;2.63;;;1.40;;
59336;SDS011;45115;52.002;4.686;2022-12-07T15:11:55;5.53;;;1.35;;
59336;SDS011;45115;52.002;4.686;2022-12-07T15:14:21;3.85;;;1.50;;
59336;SDS011;45115;52.002;4.686;2022-12-07T15:16:48;2.58;;;0.90;;
59336;SDS011;45115;52.002;4.686;2022-12-07T15:19:17;3.75;;;1.88;;
59336;SDS011;45115;52.002;4.686;2022-12-07T15:21:45;2.28;;;1.45;;
59336;SDS011;45115;52.002;4.686;2022-12-07T15:24:11;2.67;;;2.08;;
59336;SDS011;45115;52.002;4.686;2022-12-07T15:26:39;2.65;;;1.80;;
59336;SDS011;45115;52.002;4.686;2022-12-07T15:29:06;6.47;;;1.90;;
59336;SDS011;45115;52.002;4.686;2022-12-07T15:31:34;4.93;;;1.95;;
59336;SDS011;45115;52.002;4.686;2022-12-07T15:34:01;5.70;;;1.70;;
59336;SDS011;45115;52.002;4.686;2022-12-07T15:36:30;6.15;;;1.65;;
59336;SDS011;45115;52.002;4.686;2022-12-07T15:38:59;4.22;;;1.67;;
59336;SDS011;45115;52.002;4.686;2022-12-07T15:41:26;4.80;;;1.60;;
59336;SDS011;45115;52.002;4.686;2022-12-07T15:43:53;4.65;;;1.58;;
59336;SDS011;45115;52.002;4.686;2022-12-07T15:46:38;3.83;;;1.67;;